N9613C KABY-KLEX
Flight info
| Callsign | N9613C |
|---|---|
| Flight time | 2h 36m |
| Altitude | 11000 |
| Route | SMLTZ LORNN HYK |
| Aircraft | P28A/L-SDFRY/C |
Departure
| Time | 2026-05-05 12:51 |
|---|---|
| Airport | Southwest Georgia Regional Airport (KABY) |
Arrival
| Time | 2026-05-05 15:28 |
|---|---|
| Airport | Blue Grass Airport (KLEX) |
| Time | Latitude | Longitude | Altitude | Speed | Heading |
|---|---|---|---|---|---|
| 2026-05-05 12:48 | 31.53163 | -84.18964 | 196 ft | 0 kts | 304° |
| 2026-05-05 12:48 | 31.53164 | -84.18966 | 196 ft | 2 kts | 290° |
| 2026-05-05 12:49 | 31.53148 | -84.18992 | 200 ft | 7 kts | 230° |
| 2026-05-05 12:49 | 31.53147 | -84.19063 | 201 ft | 11 kts | 297° |
| 2026-05-05 12:49 | 31.53175 | -84.19143 | 196 ft | 11 kts | 233° |
| 2026-05-05 12:49 | 31.53108 | -84.19195 | 196 ft | 12 kts | 212° |
| 2026-05-05 12:50 | 31.53036 | -84.19251 | 196 ft | 13 kts | 213° |
| 2026-05-05 12:50 | 31.52958 | -84.19310 | 196 ft | 14 kts | 213° |
| 2026-05-05 12:50 | 31.52875 | -84.19372 | 201 ft | 14 kts | 213° |
| 2026-05-05 12:50 | 31.52821 | -84.19425 | 207 ft | 4 kts | 275° |
| 2026-05-05 12:51 | 31.52887 | -84.19468 | 198 ft | 36 kts | 338° |
| 2026-05-05 12:51 | 31.53366 | -84.19634 | 225 ft | 97 kts | 337° |
| 2026-05-05 12:51 | 31.54019 | -84.19941 | 631 ft | 98 kts | 337° |
| 2026-05-05 12:51 | 31.54667 | -84.20374 | 945 ft | 116 kts | 326° |
| 2026-05-05 12:52 | 31.55382 | -84.20597 | 1545 ft | 97 kts | 5° |
| 2026-05-05 12:52 | 31.55958 | -84.20268 | 1834 ft | 95 kts | 48° |
| 2026-05-05 12:52 | 31.56401 | -84.19706 | 2189 ft | 94 kts | 47° |
| 2026-05-05 12:52 | 31.57011 | -84.19462 | 2552 ft | 98 kts | 352° |
| 2026-05-05 12:53 | 31.57691 | -84.19461 | 2917 ft | 99 kts | 8° |
| 2026-05-05 12:53 | 31.58376 | -84.19414 | 3204 ft | 99 kts | 2° |
| 2026-05-05 12:53 | 31.59072 | -84.19410 | 3519 ft | 101 kts | 2° |
| 2026-05-05 12:53 | 31.59771 | -84.19382 | 3761 ft | 101 kts | 2° |
| 2026-05-05 12:54 | 31.60949 | -84.19365 | 4196 ft | 102 kts | 359° |
| 2026-05-05 12:54 | 31.61909 | -84.19355 | 4542 ft | 104 kts | 357° |
| 2026-05-05 12:54 | 31.62388 | -84.19351 | 4764 ft | 105 kts | 0° |
| 2026-05-05 12:55 | 31.63120 | -84.19324 | 5089 ft | 105 kts | 359° |
| 2026-05-05 12:55 | 31.63847 | -84.19315 | 5344 ft | 104 kts | 358° |
| 2026-05-05 12:55 | 31.64575 | -84.19306 | 5593 ft | 104 kts | 357° |
| 2026-05-05 12:55 | 31.65298 | -84.19295 | 5843 ft | 104 kts | 356° |
| 2026-05-05 12:56 | 31.66018 | -84.19285 | 6174 ft | 103 kts | 355° |
| 2026-05-05 12:56 | 31.66735 | -84.19267 | 6465 ft | 103 kts | 355° |
| 2026-05-05 12:56 | 31.67450 | -84.19266 | 6676 ft | 103 kts | 354° |
| 2026-05-05 12:56 | 31.68164 | -84.19247 | 6924 ft | 102 kts | 355° |
| 2026-05-05 12:57 | 31.68877 | -84.19235 | 7159 ft | 102 kts | 354° |
| 2026-05-05 12:57 | 31.69588 | -84.19235 | 7343 ft | 102 kts | 354° |
| 2026-05-05 12:57 | 31.70299 | -84.19221 | 7531 ft | 102 kts | 354° |
| 2026-05-05 12:57 | 31.71009 | -84.19211 | 7716 ft | 102 kts | 354° |
| 2026-05-05 12:58 | 31.71717 | -84.19200 | 7886 ft | 102 kts | 355° |
| 2026-05-05 12:58 | 31.72426 | -84.19188 | 8056 ft | 102 kts | 355° |
| 2026-05-05 12:58 | 31.73133 | -84.19179 | 8210 ft | 102 kts | 355° |
| 2026-05-05 12:58 | 31.73841 | -84.19168 | 8376 ft | 102 kts | 354° |
| 2026-05-05 12:59 | 31.74525 | -84.19154 | 8521 ft | 102 kts | 355° |
| 2026-05-05 12:59 | 31.75232 | -84.19145 | 8681 ft | 102 kts | 355° |
| 2026-05-05 12:59 | 31.75939 | -84.19132 | 8806 ft | 102 kts | 355° |
| 2026-05-05 13:00 | 31.77350 | -84.19112 | 9040 ft | 101 kts | 355° |
| 2026-05-05 13:00 | 31.78047 | -84.19100 | 9126 ft | 101 kts | 355° |
| 2026-05-05 13:01 | 31.80159 | -84.19068 | 9333 ft | 101 kts | 355° |
| 2026-05-05 13:01 | 31.80864 | -84.19058 | 9378 ft | 101 kts | 355° |
| 2026-05-05 13:01 | 31.81569 | -84.19047 | 9415 ft | 101 kts | 355° |
| 2026-05-05 13:01 | 31.82275 | -84.19036 | 9453 ft | 101 kts | 355° |
| 2026-05-05 13:02 | 31.82980 | -84.19026 | 9471 ft | 101 kts | 355° |
| 2026-05-05 13:02 | 31.83684 | -84.19015 | 9497 ft | 101 kts | 355° |
| 2026-05-05 13:02 | 31.84389 | -84.19004 | 9531 ft | 101 kts | 355° |
| 2026-05-05 13:02 | 31.85094 | -84.18994 | 9540 ft | 101 kts | 355° |
| 2026-05-05 13:03 | 31.85789 | -84.18983 | 9556 ft | 101 kts | 355° |
| 2026-05-05 13:03 | 31.86493 | -84.18973 | 9564 ft | 101 kts | 355° |
| 2026-05-05 13:03 | 31.87200 | -84.18963 | 9570 ft | 101 kts | 355° |
| 2026-05-05 13:03 | 31.87906 | -84.18951 | 9575 ft | 101 kts | 355° |
| 2026-05-05 13:04 | 31.88610 | -84.18940 | 9585 ft | 101 kts | 355° |
| 2026-05-05 13:04 | 31.89315 | -84.18931 | 9594 ft | 101 kts | 355° |
| 2026-05-05 13:04 | 31.90020 | -84.18920 | 9597 ft | 101 kts | 356° |
| 2026-05-05 13:04 | 31.90721 | -84.18908 | 9603 ft | 101 kts | 355° |
| 2026-05-05 13:05 | 31.91426 | -84.18899 | 9606 ft | 101 kts | 356° |
| 2026-05-05 13:05 | 31.92131 | -84.18889 | 9606 ft | 101 kts | 355° |
| 2026-05-05 13:05 | 31.92839 | -84.18877 | 9616 ft | 102 kts | 355° |
| 2026-05-05 13:05 | 31.93545 | -84.18867 | 9616 ft | 101 kts | 356° |
| 2026-05-05 13:06 | 31.94247 | -84.18857 | 9620 ft | 101 kts | 355° |
| 2026-05-05 13:06 | 31.94949 | -84.18846 | 9617 ft | 101 kts | 355° |
| 2026-05-05 13:06 | 31.95649 | -84.18836 | 9618 ft | 100 kts | 356° |
| 2026-05-05 13:06 | 31.96348 | -84.18827 | 9614 ft | 100 kts | 355° |
| 2026-05-05 13:07 | 31.97049 | -84.18815 | 9616 ft | 101 kts | 355° |
| 2026-05-05 13:07 | 31.97748 | -84.18805 | 9616 ft | 100 kts | 356° |
| 2026-05-05 13:07 | 31.98437 | -84.18796 | 9616 ft | 100 kts | 355° |
| 2026-05-05 13:07 | 31.99177 | -84.18785 | 9521 ft | 111 kts | 356° |
| 2026-05-05 13:08 | 31.99982 | -84.18767 | 9418 ft | 120 kts | 357° |
| 2026-05-05 13:08 | 32.00848 | -84.18750 | 9317 ft | 128 kts | 358° |
| 2026-05-05 13:08 | 32.01750 | -84.18733 | 9215 ft | 135 kts | 358° |
| 2026-05-05 13:08 | 32.02751 | -84.18721 | 9116 ft | 150 kts | 358° |
| 2026-05-05 13:09 | 32.03825 | -84.18702 | 9028 ft | 158 kts | 358° |
| 2026-05-05 13:09 | 32.04925 | -84.18682 | 9023 ft | 158 kts | 358° |
| 2026-05-05 13:09 | 32.06010 | -84.18666 | 9021 ft | 158 kts | 358° |
| 2026-05-05 13:09 | 32.07117 | -84.18650 | 9020 ft | 159 kts | 358° |
| 2026-05-05 13:10 | 32.08232 | -84.18633 | 9022 ft | 160 kts | 358° |
| 2026-05-05 13:10 | 32.09345 | -84.18616 | 9023 ft | 160 kts | 358° |
| 2026-05-05 13:10 | 32.10460 | -84.18600 | 9020 ft | 160 kts | 358° |
| 2026-05-05 13:10 | 32.11572 | -84.18583 | 9019 ft | 160 kts | 358° |
| 2026-05-05 13:11 | 32.12689 | -84.18566 | 9020 ft | 160 kts | 358° |
| 2026-05-05 13:11 | 32.13803 | -84.18550 | 9020 ft | 160 kts | 358° |
| 2026-05-05 13:11 | 32.14917 | -84.18533 | 9021 ft | 160 kts | 358° |
| 2026-05-05 13:11 | 32.16031 | -84.18517 | 9023 ft | 160 kts | 358° |
| 2026-05-05 13:12 | 32.17147 | -84.18499 | 9022 ft | 161 kts | 358° |
| 2026-05-05 13:12 | 32.18269 | -84.18483 | 9023 ft | 161 kts | 358° |
| 2026-05-05 13:12 | 32.19386 | -84.18466 | 9018 ft | 161 kts | 358° |
| 2026-05-05 13:12 | 32.20505 | -84.18449 | 9019 ft | 161 kts | 358° |
| 2026-05-05 13:13 | 32.21610 | -84.18433 | 9020 ft | 161 kts | 358° |
| 2026-05-05 13:13 | 32.22727 | -84.18416 | 9020 ft | 161 kts | 358° |
| 2026-05-05 13:13 | 32.23843 | -84.18400 | 9020 ft | 160 kts | 358° |
| 2026-05-05 13:13 | 32.24961 | -84.18383 | 9021 ft | 161 kts | 358° |
| 2026-05-05 13:14 | 32.26078 | -84.18366 | 9020 ft | 161 kts | 358° |
| 2026-05-05 13:14 | 32.27199 | -84.18350 | 9020 ft | 161 kts | 358° |
| 2026-05-05 13:14 | 32.28320 | -84.18332 | 9021 ft | 161 kts | 358° |
| 2026-05-05 13:14 | 32.29441 | -84.18315 | 9019 ft | 161 kts | 358° |
| 2026-05-05 13:15 | 32.30560 | -84.18298 | 9022 ft | 161 kts | 358° |
| 2026-05-05 13:15 | 32.31681 | -84.18282 | 9023 ft | 161 kts | 358° |
| 2026-05-05 13:15 | 32.32802 | -84.18265 | 9020 ft | 161 kts | 358° |
| 2026-05-05 13:15 | 32.33925 | -84.18249 | 9020 ft | 161 kts | 358° |
| 2026-05-05 13:16 | 32.35050 | -84.18231 | 9019 ft | 162 kts | 358° |
| 2026-05-05 13:16 | 32.36173 | -84.18214 | 9024 ft | 162 kts | 358° |
| 2026-05-05 13:16 | 32.37304 | -84.18200 | 9018 ft | 163 kts | 358° |
| 2026-05-05 13:16 | 32.38437 | -84.18182 | 9019 ft | 163 kts | 358° |
| 2026-05-05 13:17 | 32.39572 | -84.18161 | 9017 ft | 163 kts | 358° |
| 2026-05-05 13:17 | 32.40710 | -84.18149 | 9021 ft | 163 kts | 357° |
| 2026-05-05 13:17 | 32.41847 | -84.18131 | 9015 ft | 164 kts | 358° |
| 2026-05-05 13:17 | 32.42982 | -84.18110 | 9011 ft | 162 kts | 358° |
| 2026-05-05 13:18 | 32.44110 | -84.18096 | 9015 ft | 162 kts | 358° |
| 2026-05-05 13:18 | 32.45244 | -84.18077 | 9018 ft | 163 kts | 358° |
| 2026-05-05 13:18 | 32.46383 | -84.18058 | 9016 ft | 163 kts | 359° |
| 2026-05-05 13:18 | 32.47496 | -84.18044 | 9015 ft | 162 kts | 358° |
| 2026-05-05 13:19 | 32.48622 | -84.18028 | 9014 ft | 162 kts | 358° |
| 2026-05-05 13:19 | 32.49744 | -84.18011 | 9016 ft | 161 kts | 358° |
| 2026-05-05 13:19 | 32.50871 | -84.17992 | 9016 ft | 163 kts | 358° |
| 2026-05-05 13:19 | 32.52006 | -84.17974 | 9017 ft | 163 kts | 358° |
| 2026-05-05 13:20 | 32.53139 | -84.17960 | 9018 ft | 162 kts | 358° |
| 2026-05-05 13:20 | 32.54268 | -84.17944 | 9015 ft | 163 kts | 358° |
| 2026-05-05 13:20 | 32.55408 | -84.17926 | 9013 ft | 165 kts | 358° |
| 2026-05-05 13:20 | 32.56547 | -84.17906 | 9010 ft | 163 kts | 358° |
| 2026-05-05 13:21 | 32.57681 | -84.17891 | 9009 ft | 162 kts | 358° |
| 2026-05-05 13:21 | 32.58809 | -84.17874 | 9009 ft | 162 kts | 359° |
| 2026-05-05 13:21 | 32.59944 | -84.17855 | 9018 ft | 163 kts | 358° |
| 2026-05-05 13:21 | 32.61077 | -84.17841 | 9011 ft | 162 kts | 358° |
| 2026-05-05 13:22 | 32.62208 | -84.17820 | 9014 ft | 162 kts | 358° |
| 2026-05-05 13:22 | 32.63338 | -84.17805 | 9014 ft | 162 kts | 358° |
| 2026-05-05 13:22 | 32.64472 | -84.17791 | 9021 ft | 165 kts | 358° |
| 2026-05-05 13:22 | 32.65613 | -84.17769 | 9017 ft | 164 kts | 359° |
| 2026-05-05 13:23 | 32.66749 | -84.17749 | 9020 ft | 163 kts | 358° |
| 2026-05-05 13:23 | 32.67885 | -84.17736 | 9025 ft | 163 kts | 358° |
| 2026-05-05 13:23 | 32.69004 | -84.17720 | 9024 ft | 162 kts | 358° |
| 2026-05-05 13:23 | 32.70133 | -84.17701 | 9025 ft | 163 kts | 359° |
| 2026-05-05 13:24 | 32.71265 | -84.17684 | 9028 ft | 163 kts | 358° |
| 2026-05-05 13:24 | 32.72400 | -84.17667 | 9032 ft | 163 kts | 359° |
| 2026-05-05 13:24 | 32.73535 | -84.17651 | 9031 ft | 163 kts | 358° |
| 2026-05-05 13:24 | 32.74677 | -84.17636 | 9033 ft | 164 kts | 358° |
| 2026-05-05 13:25 | 32.75817 | -84.17616 | 9034 ft | 163 kts | 358° |
| 2026-05-05 13:25 | 32.76952 | -84.17598 | 9037 ft | 163 kts | 358° |
| 2026-05-05 13:25 | 32.78082 | -84.17582 | 9042 ft | 163 kts | 358° |
| 2026-05-05 13:25 | 32.79220 | -84.17567 | 9040 ft | 164 kts | 358° |
| 2026-05-05 13:26 | 32.80360 | -84.17547 | 9044 ft | 163 kts | 359° |
| 2026-05-05 13:26 | 32.81497 | -84.17529 | 9047 ft | 163 kts | 358° |
| 2026-05-05 13:26 | 32.82630 | -84.17512 | 9047 ft | 163 kts | 358° |
| 2026-05-05 13:26 | 32.83746 | -84.17496 | 9058 ft | 163 kts | 358° |
| 2026-05-05 13:27 | 32.84886 | -84.17484 | 9050 ft | 164 kts | 358° |
| 2026-05-05 13:27 | 32.86023 | -84.17461 | 9052 ft | 163 kts | 359° |
| 2026-05-05 13:27 | 32.87159 | -84.17438 | 9057 ft | 165 kts | 359° |
| 2026-05-05 13:27 | 32.88303 | -84.17423 | 9059 ft | 164 kts | 358° |
| 2026-05-05 13:28 | 32.89442 | -84.17411 | 9058 ft | 163 kts | 358° |
| 2026-05-05 13:28 | 32.90574 | -84.17393 | 9058 ft | 163 kts | 358° |
| 2026-05-05 13:28 | 32.91711 | -84.17375 | 9060 ft | 164 kts | 358° |
| 2026-05-05 13:28 | 32.92856 | -84.17356 | 9060 ft | 165 kts | 358° |
| 2026-05-05 13:29 | 32.94007 | -84.17329 | 9058 ft | 166 kts | 359° |
| 2026-05-05 13:29 | 32.95157 | -84.17318 | 9057 ft | 164 kts | 358° |
| 2026-05-05 13:29 | 32.96303 | -84.17311 | 9054 ft | 164 kts | 358° |
| 2026-05-05 13:29 | 32.97443 | -84.17291 | 9064 ft | 164 kts | 358° |
| 2026-05-05 13:30 | 32.98590 | -84.17272 | 9055 ft | 164 kts | 358° |
| 2026-05-05 13:30 | 32.99736 | -84.17259 | 9060 ft | 165 kts | 358° |
| 2026-05-05 13:30 | 33.00886 | -84.17292 | 9055 ft | 165 kts | 356° |
| 2026-05-05 13:30 | 33.02029 | -84.17315 | 9054 ft | 164 kts | 356° |
| 2026-05-05 13:31 | 33.03153 | -84.17341 | 9052 ft | 164 kts | 356° |
| 2026-05-05 13:31 | 33.04292 | -84.17372 | 9057 ft | 165 kts | 356° |
| 2026-05-05 13:31 | 33.05444 | -84.17401 | 9052 ft | 166 kts | 356° |
| 2026-05-05 13:31 | 33.06596 | -84.17434 | 9050 ft | 165 kts | 356° |
| 2026-05-05 13:32 | 33.07740 | -84.17466 | 9044 ft | 164 kts | 356° |
| 2026-05-05 13:32 | 33.08878 | -84.17496 | 9043 ft | 164 kts | 356° |
| 2026-05-05 13:32 | 33.10022 | -84.17531 | 9047 ft | 164 kts | 356° |
| 2026-05-05 13:32 | 33.11169 | -84.17562 | 9043 ft | 166 kts | 356° |
| 2026-05-05 13:33 | 33.12320 | -84.17590 | 9038 ft | 165 kts | 356° |
| 2026-05-05 13:33 | 33.13467 | -84.17624 | 9037 ft | 164 kts | 355° |
| 2026-05-05 13:33 | 33.14606 | -84.17658 | 9032 ft | 164 kts | 356° |
| 2026-05-05 13:33 | 33.15748 | -84.17684 | 9038 ft | 165 kts | 356° |
| 2026-05-05 13:34 | 33.16906 | -84.17716 | 9032 ft | 166 kts | 356° |
| 2026-05-05 13:34 | 33.18063 | -84.17746 | 9030 ft | 166 kts | 356° |
| 2026-05-05 13:34 | 33.19201 | -84.17780 | 9035 ft | 165 kts | 356° |
| 2026-05-05 13:34 | 33.20354 | -84.17813 | 9030 ft | 166 kts | 356° |
| 2026-05-05 13:35 | 33.21503 | -84.17843 | 9030 ft | 164 kts | 356° |
| 2026-05-05 13:35 | 33.22650 | -84.17874 | 9039 ft | 164 kts | 356° |
| 2026-05-05 13:35 | 33.23807 | -84.17906 | 9045 ft | 167 kts | 356° |
| 2026-05-05 13:35 | 33.24970 | -84.17935 | 9043 ft | 168 kts | 356° |
| 2026-05-05 13:36 | 33.26131 | -84.17969 | 9044 ft | 166 kts | 355° |
| 2026-05-05 13:36 | 33.27284 | -84.18007 | 9043 ft | 166 kts | 355° |
| 2026-05-05 13:36 | 33.28435 | -84.18033 | 9043 ft | 165 kts | 356° |
| 2026-05-05 13:36 | 33.29580 | -84.18061 | 9043 ft | 165 kts | 356° |
| 2026-05-05 13:37 | 33.30725 | -84.18095 | 9043 ft | 164 kts | 356° |
| 2026-05-05 13:37 | 33.31848 | -84.18127 | 9046 ft | 164 kts | 356° |
| 2026-05-05 13:37 | 33.32995 | -84.18159 | 9047 ft | 165 kts | 356° |
| 2026-05-05 13:37 | 33.34143 | -84.18189 | 9051 ft | 165 kts | 356° |
| 2026-05-05 13:38 | 33.35299 | -84.18223 | 9052 ft | 167 kts | 356° |
| 2026-05-05 13:38 | 33.36452 | -84.18250 | 9049 ft | 165 kts | 356° |
| 2026-05-05 13:38 | 33.37606 | -84.18289 | 9055 ft | 167 kts | 356° |
| 2026-05-05 13:38 | 33.38388 | -84.18311 | 9059 ft | 166 kts | 356° |
| 2026-05-05 13:39 | 33.39923 | -84.18350 | 9051 ft | 166 kts | 356° |
| 2026-05-05 13:39 | 33.40689 | -84.18372 | 9056 ft | 167 kts | 356° |
| 2026-05-05 13:39 | 33.41850 | -84.18401 | 9051 ft | 167 kts | 356° |
| 2026-05-05 13:39 | 33.43012 | -84.18434 | 9055 ft | 167 kts | 356° |
| 2026-05-05 13:40 | 33.44175 | -84.18464 | 9051 ft | 167 kts | 356° |
| 2026-05-05 13:40 | 33.45338 | -84.18502 | 9058 ft | 168 kts | 356° |
| 2026-05-05 13:40 | 33.46502 | -84.18532 | 9050 ft | 166 kts | 356° |
| 2026-05-05 13:40 | 33.47652 | -84.18561 | 9052 ft | 165 kts | 356° |
| 2026-05-05 13:41 | 33.48807 | -84.18598 | 9046 ft | 167 kts | 356° |
| 2026-05-05 13:41 | 33.49963 | -84.18625 | 9043 ft | 166 kts | 356° |
| 2026-05-05 13:41 | 33.51114 | -84.18659 | 9042 ft | 165 kts | 356° |
| 2026-05-05 13:41 | 33.52249 | -84.18690 | 9046 ft | 166 kts | 356° |
| 2026-05-05 13:42 | 33.53403 | -84.18722 | 9038 ft | 165 kts | 356° |
| 2026-05-05 13:42 | 33.54549 | -84.18753 | 9040 ft | 165 kts | 356° |
| 2026-05-05 13:42 | 33.55694 | -84.18783 | 9035 ft | 164 kts | 356° |
| 2026-05-05 13:42 | 33.56835 | -84.18815 | 9011 ft | 164 kts | 356° |
| 2026-05-05 13:43 | 33.57976 | -84.18849 | 9011 ft | 164 kts | 356° |
| 2026-05-05 13:43 | 33.59119 | -84.18881 | 9017 ft | 164 kts | 356° |
| 2026-05-05 13:43 | 33.60270 | -84.18910 | 9016 ft | 166 kts | 356° |
| 2026-05-05 13:43 | 33.61418 | -84.18945 | 9015 ft | 165 kts | 356° |
| 2026-05-05 13:44 | 33.62564 | -84.18977 | 9012 ft | 164 kts | 356° |
| 2026-05-05 13:44 | 33.63704 | -84.19006 | 9013 ft | 163 kts | 356° |
| 2026-05-05 13:44 | 33.64844 | -84.19035 | 9020 ft | 164 kts | 356° |
| 2026-05-05 13:44 | 33.65986 | -84.19067 | 9011 ft | 164 kts | 356° |
| 2026-05-05 13:45 | 33.67128 | -84.19103 | 9012 ft | 164 kts | 355° |
| 2026-05-05 13:45 | 33.68269 | -84.19136 | 9015 ft | 164 kts | 357° |
| 2026-05-05 13:45 | 33.69421 | -84.19165 | 9020 ft | 167 kts | 356° |
| 2026-05-05 13:45 | 33.70583 | -84.19197 | 9022 ft | 167 kts | 356° |
| 2026-05-05 13:46 | 33.71744 | -84.19230 | 9018 ft | 166 kts | 356° |
| 2026-05-05 13:46 | 33.72900 | -84.19260 | 9018 ft | 165 kts | 356° |
| 2026-05-05 13:46 | 33.74043 | -84.19289 | 9024 ft | 167 kts | 356° |
| 2026-05-05 13:46 | 33.75196 | -84.19327 | 9022 ft | 165 kts | 356° |
| 2026-05-05 13:47 | 33.76350 | -84.19360 | 9019 ft | 167 kts | 356° |
| 2026-05-05 13:47 | 33.77513 | -84.19391 | 9027 ft | 168 kts | 356° |
| 2026-05-05 13:47 | 33.78682 | -84.19421 | 9024 ft | 168 kts | 356° |
| 2026-05-05 13:47 | 33.79850 | -84.19453 | 9024 ft | 168 kts | 356° |
| 2026-05-05 13:48 | 33.81019 | -84.19488 | 9023 ft | 167 kts | 356° |
| 2026-05-05 13:48 | 33.82182 | -84.19520 | 9026 ft | 167 kts | 356° |
| 2026-05-05 13:48 | 33.83343 | -84.19551 | 9024 ft | 167 kts | 356° |
| 2026-05-05 13:48 | 33.84510 | -84.19585 | 9029 ft | 167 kts | 356° |
| 2026-05-05 13:49 | 33.85678 | -84.19616 | 9026 ft | 167 kts | 356° |
| 2026-05-05 13:49 | 33.86839 | -84.19651 | 9022 ft | 167 kts | 356° |
| 2026-05-05 13:49 | 33.87994 | -84.19682 | 9026 ft | 166 kts | 356° |
| 2026-05-05 13:49 | 33.89153 | -84.19710 | 9021 ft | 166 kts | 356° |
| 2026-05-05 13:50 | 33.90314 | -84.19747 | 9024 ft | 167 kts | 356° |
| 2026-05-05 13:50 | 33.91474 | -84.19781 | 9024 ft | 167 kts | 356° |
| 2026-05-05 13:50 | 33.92635 | -84.19814 | 9019 ft | 166 kts | 356° |
| 2026-05-05 13:50 | 33.93770 | -84.19843 | 9022 ft | 166 kts | 356° |
| 2026-05-05 13:51 | 33.94924 | -84.19875 | 9021 ft | 165 kts | 356° |
| 2026-05-05 13:51 | 33.96080 | -84.19907 | 9018 ft | 166 kts | 356° |
| 2026-05-05 13:51 | 33.97235 | -84.19939 | 9018 ft | 166 kts | 355° |
| 2026-05-05 13:51 | 33.98391 | -84.19971 | 9018 ft | 166 kts | 356° |
| 2026-05-05 13:52 | 33.99545 | -84.20002 | 9021 ft | 166 kts | 356° |
| 2026-05-05 13:52 | 34.00699 | -84.20037 | 9019 ft | 166 kts | 356° |
| 2026-05-05 13:52 | 34.01854 | -84.20070 | 9021 ft | 166 kts | 356° |
| 2026-05-05 13:52 | 34.03011 | -84.20102 | 9018 ft | 166 kts | 356° |
| 2026-05-05 13:53 | 34.04162 | -84.20135 | 9019 ft | 166 kts | 356° |
| 2026-05-05 13:53 | 34.05301 | -84.20166 | 9017 ft | 166 kts | 356° |
| 2026-05-05 13:53 | 34.06452 | -84.20198 | 9020 ft | 166 kts | 355° |
| 2026-05-05 13:53 | 34.07607 | -84.20230 | 9017 ft | 166 kts | 356° |
| 2026-05-05 13:54 | 34.08759 | -84.20262 | 9017 ft | 166 kts | 356° |
| 2026-05-05 13:54 | 34.09913 | -84.20296 | 9022 ft | 166 kts | 356° |
| 2026-05-05 13:54 | 34.11067 | -84.20327 | 9024 ft | 166 kts | 355° |
| 2026-05-05 13:54 | 34.12218 | -84.20359 | 9022 ft | 166 kts | 355° |
| 2026-05-05 13:55 | 34.13370 | -84.20390 | 9021 ft | 166 kts | 355° |
| 2026-05-05 13:55 | 34.14524 | -84.20424 | 9034 ft | 166 kts | 355° |
| 2026-05-05 13:55 | 34.15675 | -84.20456 | 9033 ft | 165 kts | 355° |
| 2026-05-05 13:55 | 34.16825 | -84.20489 | 9037 ft | 165 kts | 355° |
| 2026-05-05 13:56 | 34.17977 | -84.20521 | 9035 ft | 165 kts | 355° |
| 2026-05-05 13:56 | 34.19124 | -84.20553 | 9041 ft | 165 kts | 355° |
| 2026-05-05 13:56 | 34.20272 | -84.20585 | 9041 ft | 165 kts | 355° |
| 2026-05-05 13:56 | 34.21421 | -84.20617 | 9041 ft | 165 kts | 355° |
| 2026-05-05 13:57 | 34.22571 | -84.20650 | 9043 ft | 165 kts | 355° |
| 2026-05-05 13:57 | 34.23718 | -84.20682 | 9044 ft | 165 kts | 355° |
| 2026-05-05 13:57 | 34.24851 | -84.20714 | 9045 ft | 165 kts | 355° |
| 2026-05-05 13:57 | 34.26000 | -84.20746 | 9046 ft | 165 kts | 355° |
| 2026-05-05 13:58 | 34.27151 | -84.20779 | 9044 ft | 166 kts | 355° |
| 2026-05-05 13:58 | 34.28301 | -84.20811 | 9048 ft | 165 kts | 355° |
| 2026-05-05 13:58 | 34.29452 | -84.20843 | 9046 ft | 166 kts | 355° |
| 2026-05-05 13:58 | 34.30605 | -84.20876 | 9048 ft | 166 kts | 355° |
| 2026-05-05 13:59 | 34.32912 | -84.20941 | 9049 ft | 166 kts | 355° |
| 2026-05-05 13:59 | 34.34066 | -84.20973 | 9046 ft | 166 kts | 355° |
| 2026-05-05 14:00 | 34.36368 | -84.21038 | 9050 ft | 166 kts | 355° |
| 2026-05-05 14:00 | 34.37132 | -84.21060 | 9052 ft | 166 kts | 355° |
| 2026-05-05 14:00 | 34.38676 | -84.21103 | 9049 ft | 166 kts | 355° |
| 2026-05-05 14:00 | 34.39829 | -84.21135 | 9044 ft | 165 kts | 355° |
| 2026-05-05 14:01 | 34.40956 | -84.21168 | 9050 ft | 165 kts | 355° |
| 2026-05-05 14:01 | 34.42120 | -84.21201 | 9046 ft | 166 kts | 355° |
| 2026-05-05 14:01 | 34.43260 | -84.21232 | 9039 ft | 166 kts | 355° |
| 2026-05-05 14:01 | 34.44412 | -84.21265 | 9037 ft | 166 kts | 355° |
| 2026-05-05 14:02 | 34.45564 | -84.21298 | 9037 ft | 166 kts | 355° |
| 2026-05-05 14:02 | 34.46720 | -84.21330 | 9035 ft | 166 kts | 355° |
| 2026-05-05 14:02 | 34.47875 | -84.21363 | 9043 ft | 166 kts | 355° |
| 2026-05-05 14:02 | 34.49036 | -84.21395 | 9039 ft | 167 kts | 355° |
| 2026-05-05 14:03 | 34.50204 | -84.21427 | 9044 ft | 168 kts | 355° |
| 2026-05-05 14:03 | 34.51373 | -84.21463 | 9036 ft | 168 kts | 355° |
| 2026-05-05 14:03 | 34.52529 | -84.21495 | 9033 ft | 169 kts | 355° |
| 2026-05-05 14:03 | 34.53706 | -84.21528 | 9027 ft | 169 kts | 355° |
| 2026-05-05 14:04 | 34.54873 | -84.21560 | 9024 ft | 167 kts | 355° |
| 2026-05-05 14:04 | 34.56038 | -84.21593 | 9024 ft | 167 kts | 355° |
| 2026-05-05 14:04 | 34.57198 | -84.21627 | 9025 ft | 167 kts | 355° |
| 2026-05-05 14:04 | 34.58361 | -84.21659 | 9021 ft | 168 kts | 355° |
| 2026-05-05 14:05 | 34.59532 | -84.21693 | 9018 ft | 168 kts | 355° |
| 2026-05-05 14:05 | 34.60697 | -84.21724 | 9021 ft | 168 kts | 354° |
| 2026-05-05 14:05 | 34.61863 | -84.21759 | 9027 ft | 168 kts | 355° |
| 2026-05-05 14:05 | 34.63027 | -84.21791 | 9030 ft | 167 kts | 354° |
| 2026-05-05 14:06 | 34.64192 | -84.21825 | 9033 ft | 168 kts | 354° |
| 2026-05-05 14:06 | 34.65364 | -84.21856 | 9028 ft | 168 kts | 355° |
| 2026-05-05 14:06 | 34.66517 | -84.21889 | 9029 ft | 165 kts | 354° |
| 2026-05-05 14:06 | 34.67668 | -84.21927 | 9033 ft | 166 kts | 355° |
| 2026-05-05 14:07 | 34.68818 | -84.21956 | 9031 ft | 165 kts | 354° |
| 2026-05-05 14:07 | 34.69968 | -84.21990 | 9034 ft | 165 kts | 354° |
| 2026-05-05 14:07 | 34.71124 | -84.22025 | 9046 ft | 168 kts | 354° |
| 2026-05-05 14:07 | 34.72295 | -84.22057 | 9036 ft | 167 kts | 355° |
| 2026-05-05 14:08 | 34.73457 | -84.22086 | 9041 ft | 167 kts | 354° |
| 2026-05-05 14:08 | 34.74608 | -84.22121 | 9042 ft | 167 kts | 354° |
| 2026-05-05 14:08 | 34.75779 | -84.22154 | 9040 ft | 168 kts | 354° |
| 2026-05-05 14:08 | 34.76951 | -84.22192 | 9042 ft | 169 kts | 355° |
| 2026-05-05 14:09 | 34.78123 | -84.22221 | 9051 ft | 169 kts | 355° |
| 2026-05-05 14:09 | 34.79298 | -84.22252 | 9049 ft | 168 kts | 354° |
| 2026-05-05 14:09 | 34.80472 | -84.22287 | 9047 ft | 169 kts | 354° |
| 2026-05-05 14:09 | 34.81648 | -84.22322 | 9044 ft | 170 kts | 354° |
| 2026-05-05 14:10 | 34.82828 | -84.22355 | 9051 ft | 169 kts | 354° |
| 2026-05-05 14:10 | 34.84003 | -84.22389 | 9051 ft | 169 kts | 354° |
| 2026-05-05 14:10 | 34.85176 | -84.22424 | 9053 ft | 169 kts | 353° |
| 2026-05-05 14:10 | 34.86339 | -84.22464 | 9046 ft | 169 kts | 355° |
| 2026-05-05 14:11 | 34.87519 | -84.22484 | 9046 ft | 170 kts | 355° |
| 2026-05-05 14:11 | 34.88712 | -84.22520 | 9049 ft | 169 kts | 354° |
| 2026-05-05 14:11 | 34.89896 | -84.22557 | 9041 ft | 170 kts | 354° |
| 2026-05-05 14:11 | 34.91077 | -84.22590 | 9041 ft | 169 kts | 354° |
| 2026-05-05 14:12 | 34.92240 | -84.22623 | 9042 ft | 169 kts | 354° |
| 2026-05-05 14:12 | 34.93423 | -84.22658 | 9038 ft | 170 kts | 354° |
| 2026-05-05 14:12 | 34.94601 | -84.22689 | 9036 ft | 169 kts | 354° |
| 2026-05-05 14:12 | 34.95774 | -84.22726 | 9035 ft | 169 kts | 354° |
| 2026-05-05 14:13 | 34.96944 | -84.22758 | 9030 ft | 168 kts | 354° |
| 2026-05-05 14:13 | 34.98115 | -84.22791 | 9032 ft | 169 kts | 354° |
| 2026-05-05 14:13 | 34.99292 | -84.22824 | 9040 ft | 170 kts | 354° |
| 2026-05-05 14:13 | 35.00481 | -84.22864 | 9030 ft | 171 kts | 354° |
| 2026-05-05 14:14 | 35.01674 | -84.22891 | 9031 ft | 172 kts | 355° |
| 2026-05-05 14:14 | 35.02865 | -84.22925 | 9026 ft | 170 kts | 354° |
| 2026-05-05 14:14 | 35.04047 | -84.22965 | 9016 ft | 169 kts | 354° |
| 2026-05-05 14:14 | 35.05231 | -84.23001 | 9030 ft | 174 kts | 354° |
| 2026-05-05 14:15 | 35.06433 | -84.23033 | 9015 ft | 172 kts | 354° |
| 2026-05-05 14:15 | 35.07622 | -84.23061 | 9011 ft | 170 kts | 354° |
| 2026-05-05 14:15 | 35.08802 | -84.23097 | 9023 ft | 170 kts | 354° |
| 2026-05-05 14:15 | 35.09970 | -84.23133 | 9009 ft | 169 kts | 354° |
| 2026-05-05 14:16 | 35.11148 | -84.23165 | 9005 ft | 169 kts | 354° |
| 2026-05-05 14:16 | 35.12328 | -84.23200 | 9007 ft | 169 kts | 354° |
| 2026-05-05 14:16 | 35.13506 | -84.23233 | 9005 ft | 169 kts | 354° |
| 2026-05-05 14:16 | 35.14681 | -84.23266 | 9004 ft | 169 kts | 354° |
| 2026-05-05 14:17 | 35.15851 | -84.23301 | 9010 ft | 166 kts | 354° |
| 2026-05-05 14:17 | 35.17017 | -84.23336 | 9008 ft | 168 kts | 354° |
| 2026-05-05 14:17 | 35.18189 | -84.23367 | 9010 ft | 169 kts | 354° |
| 2026-05-05 14:17 | 35.19368 | -84.23401 | 9021 ft | 170 kts | 354° |
| 2026-05-05 14:18 | 35.20555 | -84.23437 | 9011 ft | 170 kts | 354° |
| 2026-05-05 14:18 | 35.21735 | -84.23468 | 9013 ft | 169 kts | 354° |
| 2026-05-05 14:18 | 35.22913 | -84.23503 | 9006 ft | 169 kts | 354° |
| 2026-05-05 14:18 | 35.24090 | -84.23537 | 9006 ft | 169 kts | 354° |
| 2026-05-05 14:19 | 35.25265 | -84.23572 | 9003 ft | 169 kts | 353° |
| 2026-05-05 14:19 | 35.26447 | -84.23609 | 8993 ft | 170 kts | 354° |
| 2026-05-05 14:19 | 35.27628 | -84.23638 | 8996 ft | 169 kts | 354° |
| 2026-05-05 14:19 | 35.28806 | -84.23672 | 8995 ft | 170 kts | 354° |
| 2026-05-05 14:20 | 35.29973 | -84.23707 | 8991 ft | 170 kts | 354° |
| 2026-05-05 14:20 | 35.31149 | -84.23739 | 8993 ft | 169 kts | 354° |
| 2026-05-05 14:20 | 35.32324 | -84.23775 | 8997 ft | 169 kts | 354° |
| 2026-05-05 14:20 | 35.33502 | -84.23809 | 8996 ft | 169 kts | 354° |
| 2026-05-05 14:21 | 35.34674 | -84.23842 | 9004 ft | 168 kts | 353° |
| 2026-05-05 14:21 | 35.35847 | -84.23898 | 8995 ft | 168 kts | 350° |
| 2026-05-05 14:21 | 35.37016 | -84.24013 | 8994 ft | 168 kts | 350° |
| 2026-05-05 14:21 | 35.38181 | -84.24106 | 8996 ft | 167 kts | 351° |
| 2026-05-05 14:22 | 35.39346 | -84.24203 | 8996 ft | 168 kts | 351° |
| 2026-05-05 14:22 | 35.40518 | -84.24303 | 8996 ft | 168 kts | 351° |
| 2026-05-05 14:22 | 35.41677 | -84.24407 | 9000 ft | 168 kts | 350° |
| 2026-05-05 14:22 | 35.42844 | -84.24510 | 9000 ft | 169 kts | 351° |
| 2026-05-05 14:23 | 35.43629 | -84.24572 | 9004 ft | 170 kts | 351° |
| 2026-05-05 14:23 | 35.45194 | -84.24708 | 9000 ft | 169 kts | 351° |
| 2026-05-05 14:23 | 35.46372 | -84.24812 | 9000 ft | 169 kts | 350° |
| 2026-05-05 14:23 | 35.47151 | -84.24879 | 9004 ft | 169 kts | 351° |
| 2026-05-05 14:24 | 35.48715 | -84.25013 | 9006 ft | 169 kts | 351° |
| 2026-05-05 14:24 | 35.49497 | -84.25080 | 9001 ft | 168 kts | 350° |
| 2026-05-05 14:24 | 35.50671 | -84.25185 | 9007 ft | 169 kts | 350° |
| 2026-05-05 14:24 | 35.51847 | -84.25288 | 9000 ft | 169 kts | 351° |
| 2026-05-05 14:25 | 35.53004 | -84.25388 | 9012 ft | 169 kts | 350° |
| 2026-05-05 14:25 | 35.54181 | -84.25490 | 9010 ft | 168 kts | 350° |
| 2026-05-05 14:25 | 35.55351 | -84.25592 | 9004 ft | 169 kts | 350° |
| 2026-05-05 14:25 | 35.56514 | -84.25693 | 9009 ft | 169 kts | 350° |
| 2026-05-05 14:26 | 35.57693 | -84.25795 | 9006 ft | 170 kts | 351° |
| 2026-05-05 14:26 | 35.58871 | -84.25896 | 9006 ft | 170 kts | 350° |
| 2026-05-05 14:26 | 35.60055 | -84.26005 | 9004 ft | 170 kts | 350° |
| 2026-05-05 14:26 | 35.61242 | -84.26107 | 9002 ft | 170 kts | 350° |
| 2026-05-05 14:27 | 35.62413 | -84.26205 | 9003 ft | 171 kts | 351° |
| 2026-05-05 14:27 | 35.63601 | -84.26307 | 9017 ft | 170 kts | 350° |
| 2026-05-05 14:27 | 35.64790 | -84.26414 | 9003 ft | 171 kts | 351° |
| 2026-05-05 14:27 | 35.65976 | -84.26516 | 9011 ft | 170 kts | 350° |
| 2026-05-05 14:28 | 35.67158 | -84.26620 | 9005 ft | 170 kts | 350° |
| 2026-05-05 14:28 | 35.68328 | -84.26722 | 9000 ft | 170 kts | 350° |
| 2026-05-05 14:28 | 35.69505 | -84.26824 | 9002 ft | 169 kts | 350° |
| 2026-05-05 14:28 | 35.70599 | -84.26918 | 9009 ft | 169 kts | 350° |
| 2026-05-05 14:29 | 35.71765 | -84.27022 | 9000 ft | 169 kts | 350° |
| 2026-05-05 14:29 | 35.72949 | -84.27128 | 8999 ft | 170 kts | 350° |
| 2026-05-05 14:29 | 35.74129 | -84.27227 | 9000 ft | 170 kts | 350° |
| 2026-05-05 14:29 | 35.75310 | -84.27331 | 8992 ft | 170 kts | 350° |
| 2026-05-05 14:30 | 35.76486 | -84.27434 | 8995 ft | 169 kts | 350° |
| 2026-05-05 14:30 | 35.77660 | -84.27537 | 8996 ft | 169 kts | 350° |
| 2026-05-05 14:30 | 35.78837 | -84.27640 | 8991 ft | 170 kts | 350° |
| 2026-05-05 14:30 | 35.80010 | -84.27743 | 8990 ft | 169 kts | 350° |
| 2026-05-05 14:31 | 35.81180 | -84.27847 | 8988 ft | 168 kts | 349° |
| 2026-05-05 14:31 | 35.82352 | -84.27949 | 8993 ft | 170 kts | 350° |
| 2026-05-05 14:31 | 35.83539 | -84.28054 | 8994 ft | 170 kts | 350° |
| 2026-05-05 14:31 | 35.84714 | -84.28153 | 8993 ft | 169 kts | 350° |
| 2026-05-05 14:32 | 35.85889 | -84.28256 | 8996 ft | 169 kts | 349° |
| 2026-05-05 14:32 | 35.87066 | -84.28362 | 8993 ft | 169 kts | 349° |
| 2026-05-05 14:32 | 35.88244 | -84.28465 | 8991 ft | 170 kts | 350° |
| 2026-05-05 14:32 | 35.89404 | -84.28563 | 8990 ft | 168 kts | 349° |
| 2026-05-05 14:33 | 35.90572 | -84.28669 | 8990 ft | 168 kts | 349° |
| 2026-05-05 14:33 | 35.91745 | -84.28772 | 8987 ft | 169 kts | 350° |
| 2026-05-05 14:33 | 35.92915 | -84.28874 | 8991 ft | 169 kts | 349° |
| 2026-05-05 14:33 | 35.94088 | -84.28977 | 8989 ft | 168 kts | 350° |
| 2026-05-05 14:34 | 35.95258 | -84.29080 | 8987 ft | 168 kts | 350° |
| 2026-05-05 14:34 | 35.96426 | -84.29183 | 8986 ft | 168 kts | 350° |
| 2026-05-05 14:34 | 35.97599 | -84.29286 | 8985 ft | 169 kts | 350° |
| 2026-05-05 14:34 | 35.98776 | -84.29390 | 8984 ft | 169 kts | 350° |
| 2026-05-05 14:35 | 35.99952 | -84.29492 | 8983 ft | 169 kts | 349° |
| 2026-05-05 14:35 | 36.01131 | -84.29596 | 8985 ft | 169 kts | 349° |
| 2026-05-05 14:35 | 36.02308 | -84.29700 | 8985 ft | 169 kts | 350° |
| 2026-05-05 14:35 | 36.03483 | -84.29803 | 8980 ft | 170 kts | 349° |
| 2026-05-05 14:36 | 36.04663 | -84.29908 | 8979 ft | 170 kts | 349° |
| 2026-05-05 14:36 | 36.05846 | -84.30011 | 8989 ft | 171 kts | 349° |
| 2026-05-05 14:36 | 36.07032 | -84.30115 | 8978 ft | 170 kts | 349° |
| 2026-05-05 14:36 | 36.08218 | -84.30221 | 8978 ft | 172 kts | 349° |
| 2026-05-05 14:37 | 36.09411 | -84.30325 | 8971 ft | 171 kts | 349° |
| 2026-05-05 14:37 | 36.10592 | -84.30429 | 8974 ft | 169 kts | 349° |
| 2026-05-05 14:37 | 36.11751 | -84.30533 | 8978 ft | 170 kts | 349° |
| 2026-05-05 14:37 | 36.12940 | -84.30639 | 8975 ft | 171 kts | 349° |
| 2026-05-05 14:38 | 36.14124 | -84.30740 | 8973 ft | 170 kts | 349° |
| 2026-05-05 14:38 | 36.15310 | -84.30845 | 8974 ft | 170 kts | 349° |
| 2026-05-05 14:38 | 36.16496 | -84.30953 | 8962 ft | 170 kts | 350° |
| 2026-05-05 14:38 | 36.17659 | -84.31055 | 8967 ft | 168 kts | 348° |
| 2026-05-05 14:39 | 36.18824 | -84.31156 | 8975 ft | 169 kts | 348° |
| 2026-05-05 14:39 | 36.20014 | -84.31265 | 8978 ft | 173 kts | 350° |
| 2026-05-05 14:39 | 36.21215 | -84.31369 | 8973 ft | 173 kts | 349° |
| 2026-05-05 14:39 | 36.22413 | -84.31472 | 8967 ft | 172 kts | 349° |
| 2026-05-05 14:40 | 36.23602 | -84.31579 | 8968 ft | 171 kts | 349° |
| 2026-05-05 14:40 | 36.24787 | -84.31684 | 8964 ft | 169 kts | 349° |
| 2026-05-05 14:40 | 36.25961 | -84.31790 | 8967 ft | 169 kts | 349° |
| 2026-05-05 14:40 | 36.27129 | -84.31888 | 8968 ft | 166 kts | 349° |
| 2026-05-05 14:41 | 36.28286 | -84.31994 | 8972 ft | 168 kts | 349° |
| 2026-05-05 14:41 | 36.29464 | -84.32101 | 8970 ft | 171 kts | 349° |
| 2026-05-05 14:41 | 36.30644 | -84.32208 | 8955 ft | 168 kts | 351° |
| 2026-05-05 14:41 | 36.31800 | -84.32303 | 8949 ft | 165 kts | 349° |
| 2026-05-05 14:42 | 36.32929 | -84.32404 | 8971 ft | 166 kts | 349° |
| 2026-05-05 14:42 | 36.34091 | -84.32512 | 8968 ft | 169 kts | 350° |
| 2026-05-05 14:42 | 36.35281 | -84.32616 | 8977 ft | 170 kts | 349° |
| 2026-05-05 14:42 | 36.36457 | -84.32720 | 8971 ft | 172 kts | 349° |
| 2026-05-05 14:43 | 36.37643 | -84.32826 | 8971 ft | 171 kts | 349° |
| 2026-05-05 14:43 | 36.38828 | -84.32927 | 8965 ft | 168 kts | 349° |
| 2026-05-05 14:43 | 36.39993 | -84.33031 | 8968 ft | 168 kts | 349° |
| 2026-05-05 14:43 | 36.41161 | -84.33142 | 8964 ft | 168 kts | 350° |
| 2026-05-05 14:44 | 36.42328 | -84.33244 | 8968 ft | 168 kts | 349° |
| 2026-05-05 14:44 | 36.43475 | -84.33341 | 8955 ft | 162 kts | 349° |
| 2026-05-05 14:44 | 36.44609 | -84.33443 | 8964 ft | 165 kts | 349° |
| 2026-05-05 14:44 | 36.45761 | -84.33547 | 8963 ft | 167 kts | 349° |
| 2026-05-05 14:45 | 36.46924 | -84.33655 | 8963 ft | 168 kts | 351° |
| 2026-05-05 14:45 | 36.48092 | -84.33752 | 8975 ft | 169 kts | 349° |
| 2026-05-05 14:45 | 36.49255 | -84.33856 | 8976 ft | 170 kts | 349° |
| 2026-05-05 14:45 | 36.50454 | -84.33964 | 8974 ft | 171 kts | 348° |
| 2026-05-05 14:46 | 36.51634 | -84.34070 | 8969 ft | 172 kts | 349° |
| 2026-05-05 14:46 | 36.52829 | -84.34178 | 8965 ft | 172 kts | 349° |
| 2026-05-05 14:46 | 36.54017 | -84.34281 | 8964 ft | 171 kts | 349° |
| 2026-05-05 14:46 | 36.55201 | -84.34386 | 8961 ft | 170 kts | 349° |
| 2026-05-05 14:47 | 36.56384 | -84.34494 | 8963 ft | 171 kts | 349° |
| 2026-05-05 14:47 | 36.57571 | -84.34599 | 8963 ft | 171 kts | 349° |
| 2026-05-05 14:47 | 36.58755 | -84.34705 | 8965 ft | 170 kts | 349° |
| 2026-05-05 14:47 | 36.59944 | -84.34814 | 8961 ft | 172 kts | 349° |
| 2026-05-05 14:48 | 36.61137 | -84.34916 | 8965 ft | 172 kts | 349° |
| 2026-05-05 14:48 | 36.62336 | -84.35024 | 8969 ft | 173 kts | 349° |
| 2026-05-05 14:48 | 36.63529 | -84.35131 | 8967 ft | 171 kts | 349° |
| 2026-05-05 14:48 | 36.64719 | -84.35238 | 8969 ft | 171 kts | 349° |
| 2026-05-05 14:49 | 36.65914 | -84.35346 | 8972 ft | 173 kts | 349° |
| 2026-05-05 14:49 | 36.67103 | -84.35451 | 8968 ft | 173 kts | 349° |
| 2026-05-05 14:49 | 36.68297 | -84.35558 | 8970 ft | 172 kts | 349° |
| 2026-05-05 14:49 | 36.69485 | -84.35664 | 8975 ft | 171 kts | 349° |
| 2026-05-05 14:50 | 36.70672 | -84.35771 | 8970 ft | 171 kts | 349° |
| 2026-05-05 14:50 | 36.71855 | -84.35875 | 8971 ft | 170 kts | 348° |
| 2026-05-05 14:50 | 36.73032 | -84.35983 | 8971 ft | 170 kts | 349° |
| 2026-05-05 14:50 | 36.74212 | -84.36090 | 8974 ft | 171 kts | 349° |
| 2026-05-05 14:51 | 36.75397 | -84.36195 | 8975 ft | 171 kts | 349° |
| 2026-05-05 14:51 | 36.76582 | -84.36301 | 8975 ft | 170 kts | 349° |
| 2026-05-05 14:51 | 36.77768 | -84.36406 | 8979 ft | 171 kts | 348° |
| 2026-05-05 14:51 | 36.78958 | -84.36515 | 8976 ft | 172 kts | 349° |
| 2026-05-05 14:52 | 36.80150 | -84.36622 | 8979 ft | 171 kts | 349° |
| 2026-05-05 14:52 | 36.81340 | -84.36728 | 8977 ft | 172 kts | 348° |
| 2026-05-05 14:52 | 36.82536 | -84.36836 | 8979 ft | 173 kts | 349° |
| 2026-05-05 14:52 | 36.83719 | -84.36942 | 8971 ft | 172 kts | 349° |
| 2026-05-05 14:53 | 36.84912 | -84.37048 | 8973 ft | 171 kts | 348° |
| 2026-05-05 14:53 | 36.86096 | -84.37155 | 8972 ft | 170 kts | 348° |
| 2026-05-05 14:53 | 36.87280 | -84.37262 | 8970 ft | 171 kts | 349° |
| 2026-05-05 14:53 | 36.88467 | -84.37370 | 8971 ft | 171 kts | 349° |
| 2026-05-05 14:54 | 36.89650 | -84.37475 | 8968 ft | 170 kts | 349° |
| 2026-05-05 14:54 | 36.90835 | -84.37582 | 8965 ft | 171 kts | 349° |
| 2026-05-05 14:54 | 36.92020 | -84.37690 | 8962 ft | 170 kts | 349° |
| 2026-05-05 14:54 | 36.93204 | -84.37797 | 8963 ft | 171 kts | 349° |
| 2026-05-05 14:55 | 36.94389 | -84.37903 | 8960 ft | 171 kts | 349° |
| 2026-05-05 14:55 | 36.95574 | -84.38009 | 8935 ft | 171 kts | 349° |
| 2026-05-05 14:55 | 36.96761 | -84.38118 | 8934 ft | 171 kts | 349° |
| 2026-05-05 14:55 | 36.97934 | -84.38222 | 8934 ft | 172 kts | 349° |
| 2026-05-05 14:56 | 36.99125 | -84.38329 | 8937 ft | 171 kts | 349° |
| 2026-05-05 14:56 | 37.00313 | -84.38437 | 8936 ft | 172 kts | 349° |
| 2026-05-05 14:56 | 37.01509 | -84.38542 | 8933 ft | 172 kts | 349° |
| 2026-05-05 14:56 | 37.02698 | -84.38652 | 8940 ft | 171 kts | 348° |
| 2026-05-05 14:57 | 37.03889 | -84.38764 | 8939 ft | 173 kts | 349° |
| 2026-05-05 14:57 | 37.05090 | -84.38869 | 8933 ft | 173 kts | 349° |
| 2026-05-05 14:57 | 37.06287 | -84.38976 | 8933 ft | 172 kts | 349° |
| 2026-05-05 14:57 | 37.07487 | -84.39086 | 8935 ft | 173 kts | 349° |
| 2026-05-05 14:58 | 37.08691 | -84.39193 | 8933 ft | 173 kts | 349° |
| 2026-05-05 14:58 | 37.09898 | -84.39303 | 8929 ft | 173 kts | 349° |
| 2026-05-05 14:58 | 37.11089 | -84.39410 | 8929 ft | 171 kts | 348° |
| 2026-05-05 14:58 | 37.12278 | -84.39517 | 8921 ft | 171 kts | 348° |
| 2026-05-05 14:59 | 37.13463 | -84.39627 | 8925 ft | 171 kts | 348° |
| 2026-05-05 14:59 | 37.14653 | -84.39734 | 8925 ft | 171 kts | 348° |
| 2026-05-05 14:59 | 37.15841 | -84.39842 | 8927 ft | 172 kts | 348° |
| 2026-05-05 14:59 | 37.17035 | -84.39950 | 8926 ft | 172 kts | 348° |
| 2026-05-05 15:00 | 37.18234 | -84.40056 | 8925 ft | 172 kts | 348° |
| 2026-05-05 15:00 | 37.19024 | -84.40131 | 8932 ft | 172 kts | 348° |
| 2026-05-05 15:00 | 37.20631 | -84.40279 | 8925 ft | 173 kts | 348° |
| 2026-05-05 15:00 | 37.21827 | -84.40383 | 8928 ft | 172 kts | 348° |
| 2026-05-05 15:01 | 37.23020 | -84.40493 | 8929 ft | 172 kts | 348° |
| 2026-05-05 15:01 | 37.24215 | -84.40602 | 8933 ft | 172 kts | 348° |
| 2026-05-05 15:01 | 37.25401 | -84.40709 | 8923 ft | 173 kts | 348° |
| 2026-05-05 15:01 | 37.26599 | -84.40817 | 8924 ft | 173 kts | 348° |
| 2026-05-05 15:02 | 37.27805 | -84.40928 | 8924 ft | 174 kts | 348° |
| 2026-05-05 15:02 | 37.29010 | -84.41039 | 8922 ft | 173 kts | 348° |
| 2026-05-05 15:02 | 37.30215 | -84.41150 | 8929 ft | 174 kts | 349° |
| 2026-05-05 15:02 | 37.31426 | -84.41257 | 8925 ft | 175 kts | 349° |
| 2026-05-05 15:03 | 37.32646 | -84.41368 | 8928 ft | 176 kts | 349° |
| 2026-05-05 15:03 | 37.33871 | -84.41478 | 8922 ft | 175 kts | 349° |
| 2026-05-05 15:03 | 37.35085 | -84.41590 | 8925 ft | 174 kts | 349° |
| 2026-05-05 15:03 | 37.36300 | -84.41704 | 8934 ft | 175 kts | 349° |
| 2026-05-05 15:04 | 37.37516 | -84.41811 | 8925 ft | 176 kts | 349° |
| 2026-05-05 15:04 | 37.38730 | -84.41921 | 8926 ft | 173 kts | 349° |
| 2026-05-05 15:04 | 37.39934 | -84.42029 | 8919 ft | 173 kts | 349° |
| 2026-05-05 15:04 | 37.41138 | -84.42142 | 8923 ft | 173 kts | 348° |
| 2026-05-05 15:05 | 37.43502 | -84.42340 | 8923 ft | 171 kts | 351° |
| 2026-05-05 15:05 | 37.44699 | -84.42386 | 8928 ft | 172 kts | 351° |
| 2026-05-05 15:05 | 37.45898 | -84.42436 | 8929 ft | 173 kts | 351° |
| 2026-05-05 15:06 | 37.47100 | -84.42491 | 8933 ft | 173 kts | 351° |
| 2026-05-05 15:06 | 37.48299 | -84.42545 | 8916 ft | 174 kts | 351° |
| 2026-05-05 15:06 | 37.49492 | -84.42596 | 8785 ft | 169 kts | 351° |
| 2026-05-05 15:06 | 37.50661 | -84.42646 | 8653 ft | 166 kts | 351° |
| 2026-05-05 15:07 | 37.51811 | -84.42702 | 8529 ft | 165 kts | 351° |
| 2026-05-05 15:07 | 37.52958 | -84.42754 | 8409 ft | 166 kts | 352° |
| 2026-05-05 15:07 | 37.54115 | -84.42802 | 8278 ft | 166 kts | 350° |
| 2026-05-05 15:07 | 37.54875 | -84.42841 | 8193 ft | 164 kts | 350° |
| 2026-05-05 15:08 | 37.56022 | -84.42898 | 8080 ft | 166 kts | 350° |
| 2026-05-05 15:08 | 37.57183 | -84.42947 | 7951 ft | 167 kts | 351° |
| 2026-05-05 15:08 | 37.58332 | -84.42999 | 7826 ft | 164 kts | 350° |
| 2026-05-05 15:08 | 37.59477 | -84.43050 | 7704 ft | 167 kts | 350° |
| 2026-05-05 15:09 | 37.60643 | -84.43110 | 7600 ft | 169 kts | 349° |
| 2026-05-05 15:09 | 37.61819 | -84.43160 | 7474 ft | 169 kts | 351° |
| 2026-05-05 15:09 | 37.62981 | -84.43209 | 7381 ft | 168 kts | 349° |
| 2026-05-05 15:09 | 37.64147 | -84.43277 | 7237 ft | 167 kts | 350° |
| 2026-05-05 15:10 | 37.65303 | -84.43315 | 7114 ft | 165 kts | 351° |
| 2026-05-05 15:10 | 37.66436 | -84.43358 | 7004 ft | 164 kts | 350° |
| 2026-05-05 15:10 | 37.67589 | -84.43408 | 6900 ft | 163 kts | 349° |
| 2026-05-05 15:10 | 37.68721 | -84.43472 | 6786 ft | 164 kts | 350° |
| 2026-05-05 15:11 | 37.69866 | -84.43533 | 6682 ft | 165 kts | 350° |
| 2026-05-05 15:11 | 37.71009 | -84.43575 | 6561 ft | 165 kts | 351° |
| 2026-05-05 15:11 | 37.72143 | -84.43624 | 6445 ft | 163 kts | 350° |
| 2026-05-05 15:11 | 37.73266 | -84.43680 | 6320 ft | 161 kts | 350° |
| 2026-05-05 15:12 | 37.74381 | -84.43741 | 6190 ft | 163 kts | 350° |
| 2026-05-05 15:12 | 37.75520 | -84.43785 | 6068 ft | 165 kts | 350° |
| 2026-05-05 15:12 | 37.76670 | -84.43831 | 5943 ft | 165 kts | 350° |
| 2026-05-05 15:12 | 37.77809 | -84.43885 | 5810 ft | 163 kts | 350° |
| 2026-05-05 15:13 | 37.78939 | -84.43941 | 5687 ft | 160 kts | 349° |
| 2026-05-05 15:13 | 37.80031 | -84.44002 | 5556 ft | 154 kts | 351° |
| 2026-05-05 15:13 | 37.81083 | -84.44024 | 5415 ft | 149 kts | 349° |
| 2026-05-05 15:13 | 37.82106 | -84.44081 | 5284 ft | 146 kts | 347° |
| 2026-05-05 15:14 | 37.83124 | -84.44123 | 5155 ft | 146 kts | 348° |
| 2026-05-05 15:14 | 37.84140 | -84.44173 | 5029 ft | 147 kts | 347° |
| 2026-05-05 15:14 | 37.85175 | -84.44226 | 4888 ft | 148 kts | 348° |
| 2026-05-05 15:14 | 37.86202 | -84.44272 | 4774 ft | 147 kts | 348° |
| 2026-05-05 15:15 | 37.87236 | -84.44318 | 4647 ft | 150 kts | 349° |
| 2026-05-05 15:15 | 37.88276 | -84.44364 | 4531 ft | 149 kts | 348° |
| 2026-05-05 15:15 | 37.89303 | -84.44417 | 4397 ft | 148 kts | 349° |
| 2026-05-05 15:15 | 37.90332 | -84.44463 | 4257 ft | 147 kts | 349° |
| 2026-05-05 15:16 | 37.91342 | -84.44501 | 4137 ft | 145 kts | 347° |
| 2026-05-05 15:16 | 37.92329 | -84.44551 | 4014 ft | 142 kts | 347° |
| 2026-05-05 15:16 | 37.93315 | -84.44597 | 3881 ft | 143 kts | 348° |
| 2026-05-05 15:16 | 37.94305 | -84.44645 | 3754 ft | 141 kts | 348° |
| 2026-05-05 15:17 | 37.95292 | -84.44692 | 3635 ft | 143 kts | 347° |
| 2026-05-05 15:17 | 37.96278 | -84.44738 | 3517 ft | 141 kts | 350° |
| 2026-05-05 15:17 | 37.97252 | -84.44774 | 3385 ft | 139 kts | 348° |
| 2026-05-05 15:17 | 37.98222 | -84.44817 | 3258 ft | 139 kts | 348° |
| 2026-05-05 15:18 | 37.99204 | -84.44868 | 3154 ft | 143 kts | 347° |
| 2026-05-05 15:18 | 38.00219 | -84.44925 | 3028 ft | 148 kts | 348° |
| 2026-05-05 15:18 | 38.01237 | -84.44961 | 3001 ft | 140 kts | 349° |
| 2026-05-05 15:18 | 38.02247 | -84.45009 | 3031 ft | 150 kts | 348° |
| 2026-05-05 15:19 | 38.03314 | -84.45065 | 3031 ft | 157 kts | 348° |
| 2026-05-05 15:19 | 38.04433 | -84.45112 | 3027 ft | 163 kts | 349° |
| 2026-05-05 15:19 | 38.05565 | -84.45154 | 3015 ft | 160 kts | 350° |
| 2026-05-05 15:19 | 38.06674 | -84.45198 | 3016 ft | 158 kts | 349° |
| 2026-05-05 15:20 | 38.07780 | -84.45265 | 3017 ft | 161 kts | 349° |
| 2026-05-05 15:20 | 38.08906 | -84.45324 | 3027 ft | 164 kts | 349° |
| 2026-05-05 15:20 | 38.10029 | -84.45360 | 3012 ft | 154 kts | 350° |
| 2026-05-05 15:20 | 38.11084 | -84.45408 | 2974 ft | 154 kts | 349° |
| 2026-05-05 15:21 | 38.12133 | -84.45544 | 2877 ft | 151 kts | 339° |
| 2026-05-05 15:21 | 38.13010 | -84.46123 | 2771 ft | 136 kts | 310° |
| 2026-05-05 15:21 | 38.13581 | -84.47026 | 2675 ft | 130 kts | 295° |
| 2026-05-05 15:21 | 38.14172 | -84.47875 | 2618 ft | 125 kts | 301° |
| 2026-05-05 15:22 | 38.14706 | -84.48727 | 2607 ft | 118 kts | 288° |
| 2026-05-05 15:22 | 38.14855 | -84.49657 | 2600 ft | 100 kts | 257° |
| 2026-05-05 15:22 | 38.14573 | -84.50403 | 2604 ft | 95 kts | 225° |
| 2026-05-05 15:22 | 38.13985 | -84.50775 | 2601 ft | 98 kts | 197° |
| 2026-05-05 15:23 | 38.13300 | -84.50924 | 2624 ft | 99 kts | 200° |
| 2026-05-05 15:23 | 38.12649 | -84.51036 | 2618 ft | 91 kts | 194° |
| 2026-05-05 15:23 | 38.12076 | -84.51249 | 2604 ft | 83 kts | 213° |
| 2026-05-05 15:23 | 38.11635 | -84.51685 | 2612 ft | 76 kts | 218° |
| 2026-05-05 15:24 | 38.11209 | -84.52110 | 2621 ft | 76 kts | 219° |
| 2026-05-05 15:24 | 38.10774 | -84.52552 | 2621 ft | 84 kts | 221° |
| 2026-05-05 15:24 | 38.10346 | -84.53044 | 2541 ft | 84 kts | 226° |
| 2026-05-05 15:24 | 38.09899 | -84.53560 | 2425 ft | 88 kts | 220° |
| 2026-05-05 15:25 | 38.09468 | -84.54053 | 2343 ft | 86 kts | 223° |
| 2026-05-05 15:25 | 38.09006 | -84.54599 | 2180 ft | 89 kts | 224° |
| 2026-05-05 15:25 | 38.08554 | -84.55137 | 1886 ft | 93 kts | 222° |
| 2026-05-05 15:25 | 38.08148 | -84.55707 | 1641 ft | 78 kts | 227° |
| 2026-05-05 15:26 | 38.07699 | -84.56176 | 1633 ft | 91 kts | 216° |
| 2026-05-05 15:26 | 38.07177 | -84.56684 | 1713 ft | 102 kts | 219° |
| 2026-05-05 15:26 | 38.06661 | -84.57205 | 1637 ft | 83 kts | 218° |
| 2026-05-05 15:26 | 38.06252 | -84.57647 | 1516 ft | 76 kts | 214° |
| 2026-05-05 15:27 | 38.05830 | -84.58104 | 1528 ft | 82 kts | 218° |
| 2026-05-05 15:27 | 38.05403 | -84.58569 | 1427 ft | 72 kts | 218° |
| 2026-05-05 15:27 | 38.05031 | -84.58978 | 1242 ft | 73 kts | 218° |
| 2026-05-05 15:27 | 38.04630 | -84.59425 | 1166 ft | 83 kts | 217° |
| 2026-05-05 15:28 | 38.04205 | -84.59902 | 1108 ft | 79 kts | 217° |
| 2026-05-05 15:28 | 38.03847 | -84.60311 | 1051 ft | 55 kts | 213° |
| 2026-05-05 15:28 | 38.03628 | -84.60540 | 1051 ft | 30 kts | 221° |
| 2026-05-05 15:28 | 38.03513 | -84.60669 | 1051 ft | 16 kts | 216° |
| 2026-05-05 15:29 | 38.03432 | -84.60760 | 1050 ft | 20 kts | 223° |
| 2026-05-05 15:29 | 38.03314 | -84.60814 | 1049 ft | 15 kts | 134° |
| 2026-05-05 15:29 | 38.03345 | -84.60723 | 1049 ft | 21 kts | 43° |
| 2026-05-05 15:29 | 38.03505 | -84.60544 | 1050 ft | 28 kts | 42° |
| 2026-05-05 15:30 | 38.03616 | -84.60423 | 1050 ft | 20 kts | 44° |
| 2026-05-05 15:30 | 38.03628 | -84.60344 | 1050 ft | 10 kts | 128° |
| 2026-05-05 15:30 | 38.03554 | -84.60239 | 1049 ft | 21 kts | 137° |
| 2026-05-05 15:30 | 38.03485 | -84.60139 | 1049 ft | 15 kts | 137° |
| 2026-05-05 15:31 | 38.03388 | -84.60072 | 1045 ft | 15 kts | 133° |
| 2026-05-05 15:31 | 38.03314 | -84.59987 | 1045 ft | 12 kts | 129° |
| 2026-05-05 15:31 | 38.03281 | -84.59959 | 1045 ft | 3 kts | 173° |
| 2026-05-05 15:31 | 38.03276 | -84.59958 | 1045 ft | 0 kts | 175° |